sensor_id;sensor_type;location;lat;lon;timestamp;temperature;humidity
51637;DHT22;37713;53.254;6.460;2023-07-13T00:01:44;16.40;99.90
51637;DHT22;37713;53.254;6.460;2023-07-13T00:04:13;16.40;99.90
51637;DHT22;37713;53.254;6.460;2023-07-13T00:06:39;16.40;99.90
51637;DHT22;37713;53.254;6.460;2023-07-13T00:09:05;16.50;99.90
51637;DHT22;37713;53.254;6.460;2023-07-13T00:11:31;16.50;99.90
51637;DHT22;37713;53.254;6.460;2023-07-13T00:13:57;16.50;99.90
51637;DHT22;37713;53.254;6.460;2023-07-13T00:16:23;16.50;99.90
51637;DHT22;37713;53.254;6.460;2023-07-13T00:18:49;16.50;99.90
51637;DHT22;37713;53.254;6.460;2023-07-13T00:21:15;16.50;99.90
51637;DHT22;37713;53.254;6.460;2023-07-13T00:23:42;16.50;99.90
51637;DHT22;37713;53.254;6.460;2023-07-13T00:26:10;16.50;99.90
51637;DHT22;37713;53.254;6.460;2023-07-13T00:28:36;16.50;99.90
51637;DHT22;37713;53.254;6.460;2023-07-13T00:31:02;16.50;99.90
51637;DHT22;37713;53.254;6.460;2023-07-13T00:33:29;16.50;99.90
51637;DHT22;37713;53.254;6.460;2023-07-13T00:35:55;16.50;99.90
51637;DHT22;37713;53.254;6.460;2023-07-13T00:38:22;16.60;99.90
51637;DHT22;37713;53.254;6.460;2023-07-13T00:40:47;16.60;99.90
51637;DHT22;37713;53.254;6.460;2023-07-13T00:43:16;16.50;99.90
51637;DHT22;37713;53.254;6.460;2023-07-13T00:48:12;16.50;99.90
51637;DHT22;37713;53.254;6.460;2023-07-13T00:50:41;16.40;99.90
51637;DHT22;37713;53.254;6.460;2023-07-13T00:53:08;16.40;99.90
51637;DHT22;37713;53.254;6.460;2023-07-13T00:55:35;16.40;99.90
51637;DHT22;37713;53.254;6.460;2023-07-13T00:58:01;16.40;99.90
51637;DHT22;37713;53.254;6.460;2023-07-13T01:00:29;16.40;99.90
51637;DHT22;37713;53.254;6.460;2023-07-13T01:02:55;16.40;99.90
51637;DHT22;37713;53.254;6.460;2023-07-13T01:05:22;16.40;99.90
51637;DHT22;37713;53.254;6.460;2023-07-13T01:07:51;16.30;99.90
51637;DHT22;37713;53.254;6.460;2023-07-13T01:10:20;16.30;99.90
51637;DHT22;37713;53.254;6.460;2023-07-13T01:12:46;16.30;99.90
51637;DHT22;37713;53.254;6.460;2023-07-13T01:15:40;16.30;99.90
51637;DHT22;37713;53.254;6.460;2023-07-13T01:18:09;16.30;99.90
51637;DHT22;37713;53.254;6.460;2023-07-13T01:20:36;16.30;99.90
51637;DHT22;37713;53.254;6.460;2023-07-13T01:23:08;16.30;99.90
51637;DHT22;37713;53.254;6.460;2023-07-13T01:25:36;16.30;99.90
51637;DHT22;37713;53.254;6.460;2023-07-13T01:28:07;16.30;99.90
51637;DHT22;37713;53.254;6.460;2023-07-13T01:30:38;16.30;99.90
51637;DHT22;37713;53.254;6.460;2023-07-13T01:33:09;16.30;99.90
51637;DHT22;37713;53.254;6.460;2023-07-13T01:35:35;16.30;99.90
51637;DHT22;37713;53.254;6.460;2023-07-13T01:38:01;16.30;99.90
51637;DHT22;37713;53.254;6.460;2023-07-13T01:40:28;16.30;99.90
51637;DHT22;37713;53.254;6.460;2023-07-13T01:42:55;16.30;99.90
51637;DHT22;37713;53.254;6.460;2023-07-13T01:45:21;16.30;99.90
51637;DHT22;37713;53.254;6.460;2023-07-13T01:47:47;16.30;99.90
51637;DHT22;37713;53.254;6.460;2023-07-13T01:50:13;16.30;99.90
51637;DHT22;37713;53.254;6.460;2023-07-13T01:52:39;16.20;99.90
51637;DHT22;37713;53.254;6.460;2023-07-13T01:55:05;16.20;99.90
51637;DHT22;37713;53.254;6.460;2023-07-13T01:57:31;16.20;99.90
51637;DHT22;37713;53.254;6.460;2023-07-13T01:59:57;16.20;99.90
51637;DHT22;37713;53.254;6.460;2023-07-13T02:02:22;16.20;99.90
51637;DHT22;37713;53.254;6.460;2023-07-13T02:04:48;16.20;99.90
51637;DHT22;37713;53.254;6.460;2023-07-13T02:07:14;16.20;99.90
51637;DHT22;37713;53.254;6.460;2023-07-13T02:09:40;16.20;99.90
51637;DHT22;37713;53.254;6.460;2023-07-13T02:12:07;16.20;99.90
51637;DHT22;37713;53.254;6.460;2023-07-13T02:14:33;16.20;99.90
51637;DHT22;37713;53.254;6.460;2023-07-13T02:16:59;16.20;99.90
51637;DHT22;37713;53.254;6.460;2023-07-13T02:19:25;16.20;99.90
51637;DHT22;37713;53.254;6.460;2023-07-13T02:21:51;16.20;99.90
51637;DHT22;37713;53.254;6.460;2023-07-13T02:24:17;16.10;99.90
51637;DHT22;37713;53.254;6.460;2023-07-13T02:26:45;16.10;99.90
51637;DHT22;37713;53.254;6.460;2023-07-13T02:29:11;16.10;99.90
51637;DHT22;37713;53.254;6.460;2023-07-13T02:31:36;16.00;99.90
51637;DHT22;37713;53.254;6.460;2023-07-13T02:34:03;16.00;99.90
51637;DHT22;37713;53.254;6.460;2023-07-13T02:36:30;16.00;99.90
51637;DHT22;37713;53.254;6.460;2023-07-13T02:38:56;16.00;99.90
51637;DHT22;37713;53.254;6.460;2023-07-13T02:41:22;15.90;99.90
51637;DHT22;37713;53.254;6.460;2023-07-13T02:43:48;15.90;99.90
51637;DHT22;37713;53.254;6.460;2023-07-13T02:46:14;15.90;99.90
51637;DHT22;37713;53.254;6.460;2023-07-13T02:48:40;15.90;99.90
51637;DHT22;37713;53.254;6.460;2023-07-13T02:51:06;15.90;99.90
51637;DHT22;37713;53.254;6.460;2023-07-13T02:53:33;15.90;99.90
51637;DHT22;37713;53.254;6.460;2023-07-13T02:55:59;15.90;99.90
51637;DHT22;37713;53.254;6.460;2023-07-13T02:58:25;15.90;99.90
51637;DHT22;37713;53.254;6.460;2023-07-13T03:00:51;15.90;99.90
51637;DHT22;37713;53.254;6.460;2023-07-13T03:03:17;15.90;99.90
51637;DHT22;37713;53.254;6.460;2023-07-13T03:05:44;15.90;99.90
51637;DHT22;37713;53.254;6.460;2023-07-13T03:08:11;15.80;99.90
51637;DHT22;37713;53.254;6.460;2023-07-13T03:10:37;15.80;99.90
51637;DHT22;37713;53.254;6.460;2023-07-13T03:13:05;15.80;99.90
51637;DHT22;37713;53.254;6.460;2023-07-13T03:15:31;15.70;99.90
51637;DHT22;37713;53.254;6.460;2023-07-13T03:17:56;15.70;99.90
51637;DHT22;37713;53.254;6.460;2023-07-13T03:20:22;15.70;99.90
51637;DHT22;37713;53.254;6.460;2023-07-13T03:22:48;15.60;99.90
51637;DHT22;37713;53.254;6.460;2023-07-13T03:25:14;15.60;99.90
51637;DHT22;37713;53.254;6.460;2023-07-13T03:27:40;15.60;99.90
51637;DHT22;37713;53.254;6.460;2023-07-13T03:30:06;15.60;99.90
51637;DHT22;37713;53.254;6.460;2023-07-13T03:32:33;15.60;99.90
51637;DHT22;37713;53.254;6.460;2023-07-13T03:34:58;15.70;99.90
51637;DHT22;37713;53.254;6.460;2023-07-13T03:37:25;15.70;99.90
51637;DHT22;37713;53.254;6.460;2023-07-13T03:39:51;15.70;99.90
51637;DHT22;37713;53.254;6.460;2023-07-13T03:42:16;15.80;99.90
51637;DHT22;37713;53.254;6.460;2023-07-13T03:44:42;15.80;99.90
51637;DHT22;37713;53.254;6.460;2023-07-13T03:47:11;15.80;99.90
51637;DHT22;37713;53.254;6.460;2023-07-13T03:49:37;15.80;99.90
51637;DHT22;37713;53.254;6.460;2023-07-13T03:52:03;15.80;99.90
51637;DHT22;37713;53.254;6.460;2023-07-13T03:54:29;15.90;99.90
51637;DHT22;37713;53.254;6.460;2023-07-13T03:56:55;15.90;99.90
51637;DHT22;37713;53.254;6.460;2023-07-13T03:59:21;15.90;99.90
51637;DHT22;37713;53.254;6.460;2023-07-13T04:01:47;15.90;99.90
51637;DHT22;37713;53.254;6.460;2023-07-13T04:04:13;15.90;99.90
51637;DHT22;37713;53.254;6.460;2023-07-13T04:06:38;15.90;99.90
51637;DHT22;37713;53.254;6.460;2023-07-13T04:09:04;15.90;99.90
51637;DHT22;37713;53.254;6.460;2023-07-13T04:11:35;15.90;99.90
51637;DHT22;37713;53.254;6.460;2023-07-13T04:14:03;15.80;99.90
51637;DHT22;37713;53.254;6.460;2023-07-13T04:16:29;15.90;99.90
51637;DHT22;37713;53.254;6.460;2023-07-13T04:18:55;15.90;99.90
51637;DHT22;37713;53.254;6.460;2023-07-13T04:21:29;15.90;99.90
51637;DHT22;37713;53.254;6.460;2023-07-13T04:23:55;15.90;99.90
51637;DHT22;37713;53.254;6.460;2023-07-13T04:26:21;15.90;99.90
51637;DHT22;37713;53.254;6.460;2023-07-13T04:28:48;15.90;99.90
51637;DHT22;37713;53.254;6.460;2023-07-13T04:31:14;15.90;99.90
51637;DHT22;37713;53.254;6.460;2023-07-13T04:33:40;15.90;99.90
51637;DHT22;37713;53.254;6.460;2023-07-13T04:36:06;16.00;99.90
51637;DHT22;37713;53.254;6.460;2023-07-13T04:38:35;16.00;99.90
51637;DHT22;37713;53.254;6.460;2023-07-13T04:41:04;16.00;99.90
51637;DHT22;37713;53.254;6.460;2023-07-13T04:43:31;16.10;99.90
51637;DHT22;37713;53.254;6.460;2023-07-13T04:46:12;16.10;99.90
51637;DHT22;37713;53.254;6.460;2023-07-13T04:48:38;16.10;99.90
51637;DHT22;37713;53.254;6.460;2023-07-13T04:51:04;16.20;99.90
51637;DHT22;37713;53.254;6.460;2023-07-13T04:53:31;16.20;99.90
51637;DHT22;37713;53.254;6.460;2023-07-13T04:55:57;16.30;99.90
51637;DHT22;37713;53.254;6.460;2023-07-13T04:58:24;16.30;99.90
51637;DHT22;37713;53.254;6.460;2023-07-13T05:00:51;16.40;99.90
51637;DHT22;37713;53.254;6.460;2023-07-13T05:03:17;16.40;99.90
51637;DHT22;37713;53.254;6.460;2023-07-13T05:05:43;16.50;99.90
51637;DHT22;37713;53.254;6.460;2023-07-13T05:08:08;16.50;99.90
51637;DHT22;37713;53.254;6.460;2023-07-13T05:10:35;16.50;99.90
51637;DHT22;37713;53.254;6.460;2023-07-13T05:13:01;16.60;99.90
51637;DHT22;37713;53.254;6.460;2023-07-13T05:15:27;16.60;99.90
51637;DHT22;37713;53.254;6.460;2023-07-13T05:17:53;16.60;99.90
51637;DHT22;37713;53.254;6.460;2023-07-13T05:20:19;16.70;99.90
51637;DHT22;37713;53.254;6.460;2023-07-13T05:22:45;16.70;99.90
51637;DHT22;37713;53.254;6.460;2023-07-13T05:25:13;16.70;99.90
51637;DHT22;37713;53.254;6.460;2023-07-13T05:27:39;16.80;99.90
51637;DHT22;37713;53.254;6.460;2023-07-13T05:30:05;16.80;99.90
51637;DHT22;37713;53.254;6.460;2023-07-13T05:32:32;16.80;99.90
51637;DHT22;37713;53.254;6.460;2023-07-13T05:34:58;16.80;99.90
51637;DHT22;37713;53.254;6.460;2023-07-13T05:37:24;16.90;99.90
51637;DHT22;37713;53.254;6.460;2023-07-13T05:39:50;16.90;99.90
51637;DHT22;37713;53.254;6.460;2023-07-13T05:42:15;17.00;99.90
51637;DHT22;37713;53.254;6.460;2023-07-13T05:44:41;17.00;99.90
51637;DHT22;37713;53.254;6.460;2023-07-13T05:47:07;17.00;99.90
51637;DHT22;37713;53.254;6.460;2023-07-13T05:49:33;17.10;99.90
51637;DHT22;37713;53.254;6.460;2023-07-13T05:51:59;17.10;99.90
51637;DHT22;37713;53.254;6.460;2023-07-13T05:54:24;17.20;99.90
51637;DHT22;37713;53.254;6.460;2023-07-13T05:56:50;17.20;99.90
51637;DHT22;37713;53.254;6.460;2023-07-13T05:59:17;17.30;99.90
51637;DHT22;37713;53.254;6.460;2023-07-13T06:01:43;17.30;99.90
51637;DHT22;37713;53.254;6.460;2023-07-13T06:04:09;17.30;99.90
51637;DHT22;37713;53.254;6.460;2023-07-13T06:06:35;17.40;99.90
51637;DHT22;37713;53.254;6.460;2023-07-13T06:09:00;17.50;99.90
51637;DHT22;37713;53.254;6.460;2023-07-13T06:11:28;17.60;99.90
51637;DHT22;37713;53.254;6.460;2023-07-13T06:13:55;17.60;99.90
51637;DHT22;37713;53.254;6.460;2023-07-13T06:16:22;17.80;99.90
51637;DHT22;37713;53.254;6.460;2023-07-13T06:18:48;17.80;99.90
51637;DHT22;37713;53.254;6.460;2023-07-13T06:21:16;17.90;99.90
51637;DHT22;37713;53.254;6.460;2023-07-13T06:23:43;18.00;99.90
51637;DHT22;37713;53.254;6.460;2023-07-13T06:26:10;18.10;99.90
51637;DHT22;37713;53.254;6.460;2023-07-13T06:28:36;18.20;99.90
51637;DHT22;37713;53.254;6.460;2023-07-13T06:31:06;18.40;99.90
51637;DHT22;37713;53.254;6.460;2023-07-13T06:33:32;18.50;99.90
51637;DHT22;37713;53.254;6.460;2023-07-13T06:35:58;18.60;99.90
51637;DHT22;37713;53.254;6.460;2023-07-13T06:38:24;18.90;99.90
51637;DHT22;37713;53.254;6.460;2023-07-13T06:40:50;19.10;99.90
51637;DHT22;37713;53.254;6.460;2023-07-13T06:43:16;19.40;99.90
51637;DHT22;37713;53.254;6.460;2023-07-13T06:45:44;20.40;99.90
51637;DHT22;37713;53.254;6.460;2023-07-13T06:48:15;21.50;99.90
51637;DHT22;37713;53.254;6.460;2023-07-13T06:50:42;22.30;99.90
51637;DHT22;37713;53.254;6.460;2023-07-13T06:53:09;23.20;99.90
51637;DHT22;37713;53.254;6.460;2023-07-13T06:55:35;24.00;99.90
51637;DHT22;37713;53.254;6.460;2023-07-13T06:58:01;24.50;99.90
51637;DHT22;37713;53.254;6.460;2023-07-13T07:00:26;24.80;99.90
51637;DHT22;37713;53.254;6.460;2023-07-13T07:02:52;24.50;99.90
51637;DHT22;37713;53.254;6.460;2023-07-13T07:05:18;24.30;99.90
51637;DHT22;37713;53.254;6.460;2023-07-13T07:07:49;23.80;99.90
51637;DHT22;37713;53.254;6.460;2023-07-13T07:10:15;23.30;99.90
51637;DHT22;37713;53.254;6.460;2023-07-13T07:12:41;23.30;99.90
51637;DHT22;37713;53.254;6.460;2023-07-13T07:15:07;23.40;99.90
51637;DHT22;37713;53.254;6.460;2023-07-13T07:17:33;23.00;99.90
51637;DHT22;37713;53.254;6.460;2023-07-13T07:19:58;22.30;99.90
51637;DHT22;37713;53.254;6.460;2023-07-13T07:22:24;22.10;99.90
51637;DHT22;37713;53.254;6.460;2023-07-13T07:24:53;22.10;99.90
51637;DHT22;37713;53.254;6.460;2023-07-13T07:27:19;22.80;99.90
51637;DHT22;37713;53.254;6.460;2023-07-13T07:29:45;23.60;99.90
51637;DHT22;37713;53.254;6.460;2023-07-13T07:32:11;24.30;99.90
51637;DHT22;37713;53.254;6.460;2023-07-13T07:34:37;24.80;99.90
51637;DHT22;37713;53.254;6.460;2023-07-13T07:37:03;24.40;99.90
51637;DHT22;37713;53.254;6.460;2023-07-13T07:39:29;24.00;99.90
51637;DHT22;37713;53.254;6.460;2023-07-13T07:41:55;23.40;99.90
51637;DHT22;37713;53.254;6.460;2023-07-13T07:44:21;23.30;99.90
51637;DHT22;37713;53.254;6.460;2023-07-13T07:46:47;23.40;99.90
51637;DHT22;37713;53.254;6.460;2023-07-13T07:49:13;23.50;99.90
51637;DHT22;37713;53.254;6.460;2023-07-13T07:51:38;23.40;99.90
51637;DHT22;37713;53.254;6.460;2023-07-13T07:54:05;23.20;99.90
51637;DHT22;37713;53.254;6.460;2023-07-13T07:56:32;22.60;99.90
51637;DHT22;37713;53.254;6.460;2023-07-13T07:58:57;22.10;99.90
51637;DHT22;37713;53.254;6.460;2023-07-13T08:01:23;21.60;99.90
51637;DHT22;37713;53.254;6.460;2023-07-13T08:03:49;21.20;99.90
51637;DHT22;37713;53.254;6.460;2023-07-13T08:06:15;20.80;99.90
51637;DHT22;37713;53.254;6.460;2023-07-13T08:08:41;20.40;99.90
51637;DHT22;37713;53.254;6.460;2023-07-13T08:11:08;20.10;99.90
51637;DHT22;37713;53.254;6.460;2023-07-13T08:13:34;20.40;99.90
51637;DHT22;37713;53.254;6.460;2023-07-13T08:16:00;21.10;99.90
51637;DHT22;37713;53.254;6.460;2023-07-13T08:18:27;21.40;99.90
51637;DHT22;37713;53.254;6.460;2023-07-13T08:20:55;21.30;99.90
51637;DHT22;37713;53.254;6.460;2023-07-13T08:23:25;21.00;99.90
51637;DHT22;37713;53.254;6.460;2023-07-13T08:25:54;20.70;99.90
51637;DHT22;37713;53.254;6.460;2023-07-13T08:28:21;20.40;99.90
51637;DHT22;37713;53.254;6.460;2023-07-13T08:30:47;20.20;99.90
51637;DHT22;37713;53.254;6.460;2023-07-13T08:33:18;20.00;99.90
51637;DHT22;37713;53.254;6.460;2023-07-13T08:35:48;19.90;99.90
51637;DHT22;37713;53.254;6.460;2023-07-13T08:38:14;19.80;99.90
51637;DHT22;37713;53.254;6.460;2023-07-13T08:40:41;19.70;99.90
51637;DHT22;37713;53.254;6.460;2023-07-13T08:43:14;19.60;99.90
51637;DHT22;37713;53.254;6.460;2023-07-13T08:45:45;19.50;99.90
51637;DHT22;37713;53.254;6.460;2023-07-13T08:50:55;19.40;99.90
51637;DHT22;37713;53.254;6.460;2023-07-13T08:53:24;19.60;99.90
51637;DHT22;37713;53.254;6.460;2023-07-13T08:55:57;19.70;99.90
51637;DHT22;37713;53.254;6.460;2023-07-13T08:58:25;19.80;99.90
51637;DHT22;37713;53.254;6.460;2023-07-13T09:01:20;19.90;99.90
51637;DHT22;37713;53.254;6.460;2023-07-13T09:04:12;20.20;99.90
51637;DHT22;37713;53.254;6.460;2023-07-13T09:07:00;20.30;99.90
51637;DHT22;37713;53.254;6.460;2023-07-13T09:10:12;20.30;99.90
51637;DHT22;37713;53.254;6.460;2023-07-13T09:12:57;20.40;99.90
51637;DHT22;37713;53.254;6.460;2023-07-13T09:23:28;21.90;99.90
51637;DHT22;37713;53.254;6.460;2023-07-13T09:26:04;22.10;99.90
51637;DHT22;37713;53.254;6.460;2023-07-13T09:28:37;22.30;99.90
51637;DHT22;37713;53.254;6.460;2023-07-13T09:33:47;22.60;99.90
51637;DHT22;37713;53.254;6.460;2023-07-13T09:46:56;23.00;99.90
51637;DHT22;37713;53.254;6.460;2023-07-13T09:49:28;22.70;99.90
51637;DHT22;37713;53.254;6.460;2023-07-13T09:52:00;22.50;99.90
51637;DHT22;37713;53.254;6.460;2023-07-13T09:54:26;22.30;99.90
51637;DHT22;37713;53.254;6.460;2023-07-13T09:56:57;22.20;99.90
51637;DHT22;37713;53.254;6.460;2023-07-13T09:59:27;22.20;99.90
51637;DHT22;37713;53.254;6.460;2023-07-13T10:01:54;22.40;99.90
51637;DHT22;37713;53.254;6.460;2023-07-13T10:04:27;22.50;99.90
51637;DHT22;37713;53.254;6.460;2023-07-13T10:07:08;22.50;99.90
51637;DHT22;37713;53.254;6.460;2023-07-13T10:09:34;22.40;99.90
51637;DHT22;37713;53.254;6.460;2023-07-13T10:12:00;22.30;99.90
51637;DHT22;37713;53.254;6.460;2023-07-13T10:14:26;22.20;99.90
51637;DHT22;37713;53.254;6.460;2023-07-13T10:16:59;22.10;99.90
51637;DHT22;37713;53.254;6.460;2023-07-13T10:19:34;22.20;99.90
51637;DHT22;37713;53.254;6.460;2023-07-13T10:22:03;22.30;99.90
51637;DHT22;37713;53.254;6.460;2023-07-13T10:24:37;22.30;99.90
51637;DHT22;37713;53.254;6.460;2023-07-13T10:27:13;22.10;99.90
51637;DHT22;37713;53.254;6.460;2023-07-13T10:30:20;22.20;99.90
51637;DHT22;37713;53.254;6.460;2023-07-13T10:32:49;22.50;99.90
51637;DHT22;37713;53.254;6.460;2023-07-13T10:35:16;22.60;99.90
51637;DHT22;37713;53.254;6.460;2023-07-13T10:37:54;22.40;99.90
51637;DHT22;37713;53.254;6.460;2023-07-13T10:40:29;22.20;99.90
51637;DHT22;37713;53.254;6.460;2023-07-13T10:42:57;22.00;99.90
51637;DHT22;37713;53.254;6.460;2023-07-13T10:45:27;22.00;99.90
51637;DHT22;37713;53.254;6.460;2023-07-13T10:47:55;21.80;99.90
51637;DHT22;37713;53.254;6.460;2023-07-13T10:50:26;21.80;99.90
51637;DHT22;37713;53.254;6.460;2023-07-13T10:52:55;21.90;99.90
51637;DHT22;37713;53.254;6.460;2023-07-13T10:58:28;22.20;99.90
51637;DHT22;37713;53.254;6.460;2023-07-13T11:03:33;22.10;99.90
51637;DHT22;37713;53.254;6.460;2023-07-13T11:06:15;22.10;99.90
51637;DHT22;37713;53.254;6.460;2023-07-13T11:21:20;22.60;99.90
51637;DHT22;37713;53.254;6.460;2023-07-13T11:24:22;22.60;99.90
51637;DHT22;37713;53.254;6.460;2023-07-13T11:29:38;22.70;99.90
51637;DHT22;37713;53.254;6.460;2023-07-13T11:32:23;22.70;99.90
51637;DHT22;37713;53.254;6.460;2023-07-13T11:34:53;22.70;99.90
51637;DHT22;37713;53.254;6.460;2023-07-13T11:37:19;22.70;99.90
51637;DHT22;37713;53.254;6.460;2023-07-13T11:39:46;22.50;99.90
51637;DHT22;37713;53.254;6.460;2023-07-13T11:42:16;22.50;99.90
51637;DHT22;37713;53.254;6.460;2023-07-13T11:44:46;22.60;99.90
51637;DHT22;37713;53.254;6.460;2023-07-13T11:47:17;22.70;99.90
51637;DHT22;37713;53.254;6.460;2023-07-13T11:49:45;22.90;99.90
51637;DHT22;37713;53.254;6.460;2023-07-13T11:52:23;23.00;99.90
51637;DHT22;37713;53.254;6.460;2023-07-13T11:54:54;23.10;99.90
51637;DHT22;37713;53.254;6.460;2023-07-13T11:57:38;23.30;99.90
51637;DHT22;37713;53.254;6.460;2023-07-13T12:00:17;23.30;99.90
51637;DHT22;37713;53.254;6.460;2023-07-13T12:02:49;23.40;99.90
51637;DHT22;37713;53.254;6.460;2023-07-13T12:05:18;23.20;99.90
51637;DHT22;37713;53.254;6.460;2023-07-13T12:07:44;23.30;99.90
51637;DHT22;37713;53.254;6.460;2023-07-13T12:12:57;23.50;99.90
51637;DHT22;37713;53.254;6.460;2023-07-13T12:15:28;23.50;99.90
51637;DHT22;37713;53.254;6.460;2023-07-13T12:17:56;23.60;99.90
51637;DHT22;37713;53.254;6.460;2023-07-13T12:20:35;23.60;99.90
51637;DHT22;37713;53.254;6.460;2023-07-13T12:23:07;23.70;99.90
51637;DHT22;37713;53.254;6.460;2023-07-13T12:25:41;23.70;99.90
51637;DHT22;37713;53.254;6.460;2023-07-13T12:31:07;23.60;99.90
51637;DHT22;37713;53.254;6.460;2023-07-13T12:33:44;23.20;99.90
51637;DHT22;37713;53.254;6.460;2023-07-13T12:36:12;22.90;99.90
51637;DHT22;37713;53.254;6.460;2023-07-13T12:38:37;22.60;99.90
51637;DHT22;37713;53.254;6.460;2023-07-13T12:41:04;22.30;99.90
51637;DHT22;37713;53.254;6.460;2023-07-13T12:43:34;22.10;99.90
51637;DHT22;37713;53.254;6.460;2023-07-13T12:46:05;22.10;99.90
51637;DHT22;37713;53.254;6.460;2023-07-13T12:48:42;22.30;99.90
51637;DHT22;37713;53.254;6.460;2023-07-13T12:51:13;22.40;99.90
51637;DHT22;37713;53.254;6.460;2023-07-13T12:53:48;22.60;99.90
51637;DHT22;37713;53.254;6.460;2023-07-13T12:56:24;22.90;99.90
51637;DHT22;37713;53.254;6.460;2023-07-13T12:58:56;23.20;99.90
51637;DHT22;37713;53.254;6.460;2023-07-13T13:01:23;23.10;99.90
51637;DHT22;37713;53.254;6.460;2023-07-13T13:03:52;23.00;99.90
51637;DHT22;37713;53.254;6.460;2023-07-13T13:08:49;22.90;99.90
51637;DHT22;37713;53.254;6.460;2023-07-13T13:11:15;22.70;99.90
51637;DHT22;37713;53.254;6.460;2023-07-13T13:13:42;22.50;99.90
51637;DHT22;37713;53.254;6.460;2023-07-13T13:16:32;22.00;99.90
51637;DHT22;37713;53.254;6.460;2023-07-13T13:19:17;21.60;99.90
51637;DHT22;37713;53.254;6.460;2023-07-13T13:21:45;21.10;99.90
51637;DHT22;37713;53.254;6.460;2023-07-13T13:24:17;20.80;99.90
51637;DHT22;37713;53.254;6.460;2023-07-13T13:26:44;20.70;99.90
51637;DHT22;37713;53.254;6.460;2023-07-13T13:29:20;20.60;99.90
51637;DHT22;37713;53.254;6.460;2023-07-13T13:31:47;20.70;99.90
51637;DHT22;37713;53.254;6.460;2023-07-13T13:34:17;20.80;99.90
51637;DHT22;37713;53.254;6.460;2023-07-13T13:36:44;20.90;99.90
51637;DHT22;37713;53.254;6.460;2023-07-13T13:39:21;20.90;99.90
51637;DHT22;37713;53.254;6.460;2023-07-13T13:41:48;21.10;99.90
51637;DHT22;37713;53.254;6.460;2023-07-13T13:44:15;21.20;99.90
51637;DHT22;37713;53.254;6.460;2023-07-13T13:46:44;21.20;99.90
51637;DHT22;37713;53.254;6.460;2023-07-13T13:49:16;21.20;99.90
51637;DHT22;37713;53.254;6.460;2023-07-13T13:51:43;21.30;99.90
51637;DHT22;37713;53.254;6.460;2023-07-13T13:54:13;21.40;99.90
51637;DHT22;37713;53.254;6.460;2023-07-13T13:56:44;21.40;99.90
51637;DHT22;37713;53.254;6.460;2023-07-13T13:59:11;21.50;99.90
51637;DHT22;37713;53.254;6.460;2023-07-13T14:01:38;21.60;99.90
51637;DHT22;37713;53.254;6.460;2023-07-13T14:04:05;21.40;99.90
51637;DHT22;37713;53.254;6.460;2023-07-13T14:06:32;21.50;99.90
51637;DHT22;37713;53.254;6.460;2023-07-13T14:08:57;21.70;99.90
51637;DHT22;37713;53.254;6.460;2023-07-13T14:11:24;21.80;99.90
51637;DHT22;37713;53.254;6.460;2023-07-13T14:13:56;21.90;99.90
51637;DHT22;37713;53.254;6.460;2023-07-13T14:16:27;22.00;99.90
51637;DHT22;37713;53.254;6.460;2023-07-13T14:18:53;22.10;99.90
51637;DHT22;37713;53.254;6.460;2023-07-13T14:21:22;22.20;99.90
51637;DHT22;37713;53.254;6.460;2023-07-13T14:23:48;22.40;99.90
51637;DHT22;37713;53.254;6.460;2023-07-13T14:26:23;22.50;99.90
51637;DHT22;37713;53.254;6.460;2023-07-13T14:28:55;22.60;99.90
51637;DHT22;37713;53.254;6.460;2023-07-13T14:31:22;22.70;99.90
51637;DHT22;37713;53.254;6.460;2023-07-13T14:33:48;22.70;99.90
51637;DHT22;37713;53.254;6.460;2023-07-13T14:36:30;22.70;99.90
51637;DHT22;37713;53.254;6.460;2023-07-13T14:38:58;22.70;99.90
51637;DHT22;37713;53.254;6.460;2023-07-13T14:41:24;22.60;99.90
51637;DHT22;37713;53.254;6.460;2023-07-13T14:43:50;22.60;99.90
51637;DHT22;37713;53.254;6.460;2023-07-13T14:46:30;22.50;99.90
51637;DHT22;37713;53.254;6.460;2023-07-13T14:51:36;22.20;99.90
51637;DHT22;37713;53.254;6.460;2023-07-13T14:54:04;22.20;99.90
51637;DHT22;37713;53.254;6.460;2023-07-13T14:56:30;22.20;99.90
51637;DHT22;37713;53.254;6.460;2023-07-13T14:58:56;22.30;99.90
51637;DHT22;37713;53.254;6.460;2023-07-13T15:01:22;22.40;99.90
51637;DHT22;37713;53.254;6.460;2023-07-13T15:03:51;22.40;99.90
51637;DHT22;37713;53.254;6.460;2023-07-13T15:06:18;22.50;99.90
51637;DHT22;37713;53.254;6.460;2023-07-13T15:08:44;22.70;99.90
51637;DHT22;37713;53.254;6.460;2023-07-13T15:11:10;22.90;99.90
51637;DHT22;37713;53.254;6.460;2023-07-13T15:13:40;22.90;99.90
51637;DHT22;37713;53.254;6.460;2023-07-13T15:16:26;23.00;99.90
51637;DHT22;37713;53.254;6.460;2023-07-13T15:18:52;23.00;99.90
51637;DHT22;37713;53.254;6.460;2023-07-13T15:21:21;23.10;99.90
51637;DHT22;37713;53.254;6.460;2023-07-13T15:23:49;22.90;99.90
51637;DHT22;37713;53.254;6.460;2023-07-13T15:26:16;22.80;99.90
51637;DHT22;37713;53.254;6.460;2023-07-13T15:28:43;22.70;99.90
51637;DHT22;37713;53.254;6.460;2023-07-13T15:31:24;22.60;99.90
51637;DHT22;37713;53.254;6.460;2023-07-13T15:33:51;22.70;99.90
51637;DHT22;37713;53.254;6.460;2023-07-13T15:36:19;23.00;99.90
51637;DHT22;37713;53.254;6.460;2023-07-13T15:38:46;22.90;99.90
51637;DHT22;37713;53.254;6.460;2023-07-13T15:41:33;22.70;99.90
51637;DHT22;37713;53.254;6.460;2023-07-13T15:44:00;22.90;99.90
51637;DHT22;37713;53.254;6.460;2023-07-13T15:46:30;23.10;99.90
51637;DHT22;37713;53.254;6.460;2023-07-13T15:48:57;23.20;99.90
51637;DHT22;37713;53.254;6.460;2023-07-13T15:51:29;23.20;99.90
51637;DHT22;37713;53.254;6.460;2023-07-13T15:54:00;23.20;99.90
51637;DHT22;37713;53.254;6.460;2023-07-13T15:56:36;23.20;99.90
51637;DHT22;37713;53.254;6.460;2023-07-13T15:59:02;23.10;99.90
51637;DHT22;37713;53.254;6.460;2023-07-13T16:01:29;23.20;99.90
51637;DHT22;37713;53.254;6.460;2023-07-13T16:03:55;23.20;99.90
51637;DHT22;37713;53.254;6.460;2023-07-13T16:06:31;23.40;99.90
51637;DHT22;37713;53.254;6.460;2023-07-13T16:08:58;23.50;99.90
51637;DHT22;37713;53.254;6.460;2023-07-13T16:11:34;23.30;99.90
51637;DHT22;37713;53.254;6.460;2023-07-13T16:14:00;23.10;99.90
51637;DHT22;37713;53.254;6.460;2023-07-13T16:16:28;23.10;99.90
51637;DHT22;37713;53.254;6.460;2023-07-13T16:18:58;23.20;99.90
51637;DHT22;37713;53.254;6.460;2023-07-13T16:21:27;23.20;99.90
51637;DHT22;37713;53.254;6.460;2023-07-13T16:23:55;23.20;99.90
51637;DHT22;37713;53.254;6.460;2023-07-13T16:26:35;23.20;99.90
51637;DHT22;37713;53.254;6.460;2023-07-13T16:29:16;23.20;99.90
51637;DHT22;37713;53.254;6.460;2023-07-13T16:34:20;22.80;99.90
51637;DHT22;37713;53.254;6.460;2023-07-13T16:36:46;22.70;99.90
51637;DHT22;37713;53.254;6.460;2023-07-13T16:39:12;22.60;99.90
51637;DHT22;37713;53.254;6.460;2023-07-13T16:41:40;22.60;99.90